Time;durP1;ratioP1;P1;durP2;ratioP2;P2;SDS_P1;SDS_P2;PMS_P1;PMS_P2;Temp;Humidity;BMP_temperature;BMP_pressure;BME280_temperature;BME280_humidity;BME280_pressure;Samples;Min_cycle;Max_cycle;Signal;HPM_P1;HPM_P2
2023/01/17 00:01:07;;;;;;;7.63;0.70;;;3.70;99.90;;;;;;5074644;28;20054;-71
2023/01/17 00:09:51;;;;;;;5.22;1.25;;;3.60;99.90;;;;;;5074127;28;20554;-72
2023/01/17 00:11:56;;;;;;;4.38;0.90;;;3.60;99.90;;;;;;5076078;28;20048;-72
2023/01/17 00:14:22;;;;;;;9.30;0.60;;;3.60;99.90;;;;;;5074248;28;20056;-74
2023/01/17 00:16:48;;;;;;;8.85;0.70;;;3.70;99.90;;;;;;5074225;28;20052;-72
2023/01/17 01:33:50;;;;;;;6.85;0.25;;;2.70;99.90;;;;;;5044799;28;20062;-71
2023/01/17 01:36:16;;;;;;;7.75;0.40;;;2.70;99.90;;;;;;5072596;28;20045;-71
2023/01/17 01:38:41;;;;;;;4.47;0.20;;;2.70;99.90;;;;;;5072884;28;20366;-71
2023/01/17 01:41:07;;;;;;;3.88;0.15;;;2.70;99.90;;;;;;5074140;28;20055;-71
2023/01/17 01:43:48;;;;;;;6.30;0.45;;;2.60;99.90;;;;;;5074510;28;20439;-71
2023/01/17 01:46:19;;;;;;;6.28;0.30;;;2.70;99.90;;;;;;5073347;28;20106;-72
2023/01/17 01:48:48;;;;;;;4.93;0.13;;;2.70;99.90;;;;;;5056394;28;20461;-72
2023/01/17 01:51:20;;;;;;;4.18;0.25;;;2.70;99.90;;;;;;5072418;28;20048;-71
2023/01/17 01:53:50;;;;;;;2.95;0.20;;;2.70;99.90;;;;;;5072698;28;20397;-70
2023/01/17 01:56:18;;;;;;;4.55;1.48;;;2.70;99.90;;;;;;5073666;28;20405;-72
2023/01/17 01:58:47;;;;;;;9.07;0.20;;;2.70;99.90;;;;;;5073511;28;20105;-71
2023/01/17 02:01:14;;;;;;;4.95;0.45;;;2.60;99.90;;;;;;5073314;28;20044;-72
2023/01/17 02:03:40;;;;;;;5.80;0.17;;;2.60;99.90;;;;;;5074313;28;20131;-70
2023/01/17 02:06:18;;;;;;;3.80;0.10;;;2.50;99.90;;;;;;5072235;28;20040;-70
2023/01/17 02:08:44;;;;;;;2.10;0.15;;;2.40;99.90;;;;;;5106038;28;20481;-71
2023/01/17 02:11:10;;;;;;;5.95;0.20;;;2.30;99.90;;;;;;5072481;28;20067;-73
2023/01/17 02:13:36;;;;;;;3.67;0.10;;;2.30;99.90;;;;;;5039889;28;20563;-72
2023/01/17 02:16:16;;;;;;;4.18;0.20;;;2.20;99.90;;;;;;5072133;28;20080;-72
2023/01/17 02:18:58;;;;;;;6.80;0.52;;;2.20;99.90;;;;;;5071804;28;20056;-72
2023/01/17 02:22:00;;;;;;;9.63;0.73;;;2.10;99.90;;;;;;5072845;28;20080;-74
2023/01/17 02:24:40;;;;;;;4.05;0.20;;;2.10;99.90;;;;;;5073829;28;20095;-71
2023/01/17 02:27:27;;;;;;;9.55;0.30;;;2.20;99.90;;;;;;5073237;28;20041;-72
2023/01/17 02:29:53;;;;;;;8.25;0.30;;;2.10;99.90;;;;;;5071938;28;20090;-72
2023/01/17 02:32:28;;;;;;;11.40;0.30;;;2.10;99.90;;;;;;5073257;28;20078;-72
2023/01/17 02:35:01;;;;;;;4.43;0.30;;;2.10;99.90;;;;;;5055677;28;20048;-72
2023/01/17 02:37:59;;;;;;;3.83;0.40;;;2.20;99.90;;;;;;5072245;28;20055;-74
2023/01/17 02:40:46;;;;;;;13.38;0.52;;;2.10;99.90;;;;;;5054881;28;20084;-72
2023/01/17 02:43:14;;;;;;;8.65;0.57;;;2.20;99.90;;;;;;5055697;28;20094;-72
2023/01/17 02:45:41;;;;;;;6.10;0.30;;;2.20;99.90;;;;;;5073713;28;20376;-71
2023/01/17 02:48:11;;;;;;;6.55;0.40;;;2.30;99.90;;;;;;5072047;28;20048;-71
2023/01/17 02:50:56;;;;;;;5.75;0.60;;;2.30;99.90;;;;;;5073307;28;20056;-72
2023/01/17 02:53:31;;;;;;;9.43;0.40;;;2.30;99.90;;;;;;5072764;28;20095;-71
2023/01/17 02:56:04;;;;;;;12.20;0.30;;;2.30;99.90;;;;;;5056145;28;20161;-70
2023/01/17 02:58:38;;;;;;;5.57;0.30;;;2.30;99.90;;;;;;5054897;28;20052;-71
2023/01/17 03:01:23;;;;;;;9.20;0.30;;;2.30;99.90;;;;;;5071831;28;20094;-71
2023/01/17 03:04:13;;;;;;;6.45;0.30;;;2.40;99.90;;;;;;5073392;28;20049;-72
2023/01/17 03:06:52;;;;;;;7.05;0.40;;;2.30;99.90;;;;;;5074919;28;20048;-71
2023/01/17 03:09:20;;;;;;;8.23;0.63;;;2.30;99.90;;;;;;5076745;28;20050;-71
2023/01/17 03:11:46;;;;;;;7.25;0.25;;;2.20;99.90;;;;;;5075567;28;20451;-72
2023/01/17 03:14:12;;;;;;;7.45;0.50;;;2.30;99.90;;;;;;5076359;28;20098;-71
2023/01/17 03:16:38;;;;;;;8.20;0.40;;;2.30;99.90;;;;;;5076448;28;20037;-72
2023/01/17 03:19:04;;;;;;;9.07;0.30;;;2.30;99.90;;;;;;5076841;28;20056;-73
2023/01/17 03:21:30;;;;;;;5.65;0.40;;;2.30;99.90;;;;;;5076214;28;20055;-73
2023/01/17 03:23:56;;;;;;;3.65;0.60;;;2.20;99.90;;;;;;5076732;28;20045;-72
2023/01/17 03:26:21;;;;;;;4.20;0.20;;;2.20;99.90;;;;;;5076273;28;20556;-71
2023/01/17 03:28:47;;;;;;;8.55;0.30;;;2.20;99.90;;;;;;5109787;28;20056;-72
2023/01/17 03:31:16;;;;;;;6.38;0.57;;;2.20;99.90;;;;;;5075569;28;20052;-71
2023/01/17 03:33:42;;;;;;;9.70;0.30;;;2.30;99.90;;;;;;5074969;28;20052;-72
2023/01/17 03:36:08;;;;;;;9.32;0.50;;;2.30;99.90;;;;;;5075160;28;20052;-73
2023/01/17 03:38:36;;;;;;;11.40;0.45;;;2.30;99.90;;;;;;5075191;28;20063;-72
2023/01/17 03:41:01;;;;;;;;;;;2.30;99.90;;;;;;5076586;28;20059;-73
2023/01/17 03:43:27;;;;;;;15.18;0.70;;;2.20;99.90;;;;;;5075671;28;19924;-72
2023/01/17 03:46:20;;;;;;;12.40;0.73;;;2.20;99.90;;;;;;5074709;28;20080;-72
2023/01/17 03:48:46;;;;;;;14.68;0.50;;;2.10;99.90;;;;;;5074138;28;20075;-71
2023/01/17 03:51:12;;;;;;;7.95;0.30;;;2.10;99.90;;;;;;5075933;28;20488;-72
2023/01/17 03:53:38;;;;;;;6.68;0.70;;;2.00;99.90;;;;;;5074615;28;20140;-73
2023/01/17 03:56:04;;;;;;;10.32;0.70;;;2.00;99.90;;;;;;5076323;28;20037;-72
2023/01/17 03:58:29;;;;;;;9.25;0.30;;;1.90;99.90;;;;;;5074780;28;20052;-73
2023/01/17 04:00:55;;;;;;;11.98;0.52;;;1.90;99.90;;;;;;5075173;28;20102;-72
2023/01/17 04:03:21;;;;;;;8.80;0.50;;;1.80;99.90;;;;;;5074757;28;20044;-71
2023/01/17 04:05:47;;;;;;;17.42;0.60;;;1.80;99.90;;;;;;5075484;28;20159;-71
2023/01/17 04:08:12;;;;;;;9.63;0.30;;;1.80;99.90;;;;;;5074940;28;20131;-72
2023/01/17 04:10:38;;;;;;;12.15;0.52;;;1.70;99.90;;;;;;5108285;28;20431;-71
2023/01/17 04:13:04;;;;;;;9.52;0.38;;;1.70;99.90;;;;;;5041269;28;20048;-71
2023/01/17 04:15:29;;;;;;;8.57;0.40;;;1.60;99.90;;;;;;5107945;28;20491;-72
2023/01/17 04:17:55;;;;;;;4.57;0.30;;;1.70;99.90;;;;;;5074114;28;20052;-71
2023/01/17 04:20:36;;;;;;;8.73;0.25;;;1.60;99.90;;;;;;5075274;28;20404;-72
2023/01/17 04:23:02;;;;;;;19.13;0.50;;;1.60;99.90;;;;;;5075152;28;20101;-72
2023/01/17 04:25:29;;;;;;;16.02;0.50;;;1.60;99.90;;;;;;5074011;28;20491;-72
2023/01/17 04:27:55;;;;;;;;;;;1.70;99.90;;;;;;5075644;28;20052;-70
2023/01/17 04:30:21;;;;;;;6.25;0.22;;;1.70;99.90;;;;;;5074804;28;20290;-71
2023/01/17 04:32:47;;;;;;;6.50;0.47;;;1.70;99.90;;;;;;5073594;28;20052;-72
2023/01/17 04:35:13;;;;;;;4.90;0.30;;;1.70;99.90;;;;;;5075110;28;20094;-72
2023/01/17 04:37:39;;;;;;;11.00;0.47;;;1.60;99.90;;;;;;5074901;28;20058;-72
2023/01/17 04:40:05;;;;;;;8.00;0.20;;;1.50;99.90;;;;;;5074284;28;20121;-72
2023/01/17 04:42:31;;;;;;;5.65;0.40;;;1.50;99.90;;;;;;5090794;28;20143;-72
2023/01/17 04:44:56;;;;;;;9.55;0.30;;;1.40;99.90;;;;;;5056859;28;20219;-71
2023/01/17 04:47:22;;;;;;;6.30;0.20;;;1.30;99.90;;;;;;5057028;28;20102;-71
2023/01/17 04:49:48;;;;;;;5.97;0.43;;;1.20;99.90;;;;;;5073478;28;20055;-72
2023/01/17 04:52:17;;;;;;;12.68;1.23;;;1.10;99.90;;;;;;5075293;28;20044;-73
2023/01/17 04:54:43;;;;;;;9.88;0.47;;;1.10;99.90;;;;;;5073877;28;20435;-72
2023/01/17 04:57:09;;;;;;;5.72;0.22;;;1.10;99.90;;;;;;5074171;28;20048;-72
2023/01/17 04:59:34;;;;;;;9.20;0.40;;;1.10;99.90;;;;;;5073291;28;20049;-72
2023/01/17 05:02:00;;;;;;;11.70;0.50;;;1.00;99.90;;;;;;5073585;28;20119;-72
2023/01/17 05:04:26;;;;;;;5.43;0.20;;;0.90;99.90;;;;;;5056743;28;20473;-72
2023/01/17 05:06:52;;;;;;;12.95;1.05;;;0.90;99.90;;;;;;5074806;28;20045;-71
2023/01/17 05:09:18;;;;;;;4.35;0.60;;;0.90;99.90;;;;;;5073502;28;20055;-73
2023/01/17 05:11:43;;;;;;;7.03;0.47;;;0.80;99.90;;;;;;5073483;28;20469;-73
2023/01/17 05:14:09;;;;;;;11.60;1.35;;;0.80;99.90;;;;;;5072626;28;20458;-72
2023/01/17 05:16:35;;;;;;;6.03;0.28;;;0.70;99.90;;;;;;5074644;28;20043;-73
2023/01/17 05:19:01;;;;;;;6.07;0.32;;;0.70;99.90;;;;;;5072943;28;20146;-73
2023/01/17 05:21:27;;;;;;;15.52;0.95;;;0.60;99.90;;;;;;5090583;28;20477;-73
2023/01/17 05:23:53;;;;;;;11.13;0.55;;;0.60;99.90;;;;;;5073241;28;20404;-73
2023/01/17 05:26:19;;;;;;;10.45;0.50;;;0.60;99.90;;;;;;5073282;28;20051;-73
2023/01/17 05:28:44;;;;;;;10.38;0.52;;;0.50;99.90;;;;;;5074288;28;20044;-72
2023/01/17 05:31:10;;;;;;;16.00;0.65;;;0.50;99.90;;;;;;5073901;28;20044;-72
2023/01/17 05:33:36;;;;;;;11.55;0.50;;;0.50;99.90;;;;;;5073853;28;20460;-72
2023/01/17 05:36:02;;;;;;;8.98;0.70;;;0.50;99.90;;;;;;5073714;28;20036;-72
2023/01/17 05:38:28;;;;;;;8.25;0.88;;;0.40;99.90;;;;;;5073232;28;20058;-72
2023/01/17 05:40:54;;;;;;;8.07;0.70;;;0.50;99.90;;;;;;5072628;28;20048;-71
2023/01/17 05:43:21;;;;;;;17.20;0.47;;;0.40;99.90;;;;;;5056594;28;20113;-72
2023/01/17 05:45:50;;;;;;;14.73;0.80;;;0.40;99.90;;;;;;5074059;28;20087;-72
2023/01/17 05:48:16;;;;;;;9.48;0.70;;;0.40;99.90;;;;;;5073374;28;20037;-71
2023/01/17 05:50:42;;;;;;;11.57;0.40;;;0.40;99.90;;;;;;5056681;28;20098;-72
2023/01/17 05:53:10;;;;;;;16.58;0.88;;;0.40;99.90;;;;;;5074115;28;20052;-72
2023/01/17 05:55:37;;;;;;;11.57;1.38;;;0.30;99.90;;;;;;5072535;28;20106;-72
2023/01/17 05:58:04;;;;;;;9.45;0.35;;;0.40;99.90;;;;;;5073442;28;20044;-72
2023/01/17 06:00:30;;;;;;;11.85;0.50;;;0.30;99.90;;;;;;5073460;28;20135;-72
2023/01/17 06:02:57;;;;;;;30.25;1.88;;;0.40;99.90;;;;;;5073297;28;20051;-72
2023/01/17 06:05:24;;;;;;;11.20;1.00;;;0.50;99.90;;;;;;5073434;28;20365;-72
2023/01/17 06:07:50;;;;;;;12.80;1.42;;;0.60;99.90;;;;;;5073389;28;20074;-72
2023/01/17 06:10:18;;;;;;;9.93;0.65;;;0.60;99.90;;;;;;5072143;28;20044;-71
2023/01/17 06:12:44;;;;;;;7.97;0.40;;;0.80;99.90;;;;;;5073458;28;20052;-70
2023/01/17 06:15:12;;;;;;;8.52;0.45;;;0.90;99.90;;;;;;5055891;28;20052;-70
2023/01/17 06:17:38;;;;;;;5.72;0.77;;;0.90;99.90;;;;;;5055644;28;20065;-72
2023/01/17 06:20:05;;;;;;;11.32;0.55;;;1.00;99.90;;;;;;5072771;28;20566;-70
2023/01/17 06:22:32;;;;;;;12.65;0.73;;;0.80;99.90;;;;;;5056014;28;20564;-71
2023/01/17 06:24:57;;;;;;;7.32;0.25;;;0.80;99.90;;;;;;5072041;28;20075;-72
2023/01/17 06:27:23;;;;;;;15.50;0.43;;;0.80;99.90;;;;;;5073827;28;20127;-72
2023/01/17 06:29:49;;;;;;;9.43;0.43;;;0.70;99.90;;;;;;5073176;28;20090;-73
2023/01/17 06:32:15;;;;;;;12.45;0.38;;;0.70;99.90;;;;;;5072368;28;20055;-72
2023/01/17 06:34:41;;;;;;;9.77;0.30;;;0.60;99.90;;;;;;5071901;28;20062;-71
2023/01/17 06:37:09;;;;;;;13.38;0.65;;;0.50;99.90;;;;;;5072624;28;20043;-71
2023/01/17 06:39:34;;;;;;;5.20;0.28;;;0.40;99.90;;;;;;5055698;28;20162;-71
2023/01/17 06:42:00;;;;;;;8.75;0.30;;;0.40;99.90;;;;;;5076140;28;20498;-71
2023/01/17 06:44:26;;;;;;;7.13;0.40;;;0.50;99.90;;;;;;5059502;28;20047;-71
2023/01/17 06:46:52;;;;;;;7.28;0.40;;;0.50;99.90;;;;;;5075706;28;20059;-69
2023/01/17 06:49:18;;;;;;;15.80;0.47;;;0.50;99.90;;;;;;5076106;28;20048;-71
2023/01/17 06:51:44;;;;;;;12.13;0.95;;;0.60;99.90;;;;;;5075890;28;20060;-70
2023/01/17 06:54:10;;;;;;;9.93;0.43;;;0.60;99.90;;;;;;5043452;28;20048;-70
2023/01/17 06:56:36;;;;;;;19.88;1.15;;;0.60;99.90;;;;;;5059333;28;20052;-71
2023/01/17 06:59:02;;;;;;;12.75;0.60;;;0.60;99.90;;;;;;5076869;28;20068;-71
2023/01/17 07:01:29;;;;;;;8.17;0.60;;;0.60;99.90;;;;;;5059437;28;20135;-71
2023/01/17 07:03:55;;;;;;;15.45;0.70;;;0.60;99.90;;;;;;5075833;28;20428;-71
2023/01/17 07:06:22;;;;;;;17.13;0.75;;;0.50;99.90;;;;;;5076121;28;20127;-71
2023/01/17 07:08:48;;;;;;;9.57;1.17;;;0.50;99.90;;;;;;5075450;28;20055;-71
2023/01/17 07:11:14;;;;;;;16.00;1.85;;;0.60;99.90;;;;;;5059012;28;20044;-71
2023/01/17 07:13:40;;;;;;;7.07;1.40;;;0.50;99.90;;;;;;5076817;28;20389;-72
2023/01/17 07:16:08;;;;;;;7.47;0.93;;;0.50;99.90;;;;;;5076528;28;20080;-72
2023/01/17 07:18:34;;;;;;;5.45;0.52;;;0.50;99.90;;;;;;5058275;28;20133;-72
2023/01/17 07:21:00;;;;;;;9.15;0.77;;;0.50;99.90;;;;;;5075594;28;20052;-71
2023/01/17 07:23:26;;;;;;;11.63;0.75;;;0.50;99.90;;;;;;5075416;28;20045;-72
2023/01/17 07:25:57;;;;;;;11.20;0.60;;;0.50;99.90;;;;;;5075206;28;20048;-72
2023/01/17 07:28:24;;;;;;;6.80;0.60;;;0.40;99.90;;;;;;5058642;28;20057;-72
2023/01/17 07:30:50;;;;;;;10.35;0.75;;;0.50;99.90;;;;;;5076863;28;20060;-72
2023/01/17 07:33:17;;;;;;;10.50;0.50;;;0.50;99.90;;;;;;5075760;28;20494;-72
2023/01/17 07:35:43;;;;;;;12.07;0.73;;;0.40;99.90;;;;;;5075510;28;20048;-71
2023/01/17 07:38:17;;;;;;;15.60;0.90;;;0.40;99.90;;;;;;5075070;28;20438;-70
2023/01/17 07:40:43;;;;;;;13.75;0.80;;;0.40;99.90;;;;;;5075633;28;20571;-73
2023/01/17 07:43:13;;;;;;;6.80;0.45;;;0.40;99.90;;;;;;5091838;28;20059;-72
2023/01/17 07:45:43;;;;;;;11.75;0.60;;;0.50;99.90;;;;;;5075942;28;20087;-72
2023/01/17 07:48:10;;;;;;;6.75;0.55;;;0.60;99.90;;;;;;5091715;28;20074;-72
2023/01/17 07:50:36;;;;;;;9.25;0.57;;;0.60;99.90;;;;;;5074428;28;20067;-71
2023/01/17 07:53:02;;;;;;;24.55;1.52;;;0.60;99.90;;;;;;5075765;28;20150;-72
2023/01/17 07:55:28;;;;;;;3.25;0.50;;;0.60;99.90;;;;;;5108583;28;20044;-72
2023/01/17 07:57:54;;;;;;;9.07;0.75;;;0.50;99.90;;;;;;5076309;28;20052;-72
2023/01/17 08:00:21;;;;;;;8.65;0.80;;;0.50;99.90;;;;;;5058235;28;20045;-70
2023/01/17 08:02:48;;;;;;;6.70;0.57;;;0.50;99.90;;;;;;5074565;28;20055;-71
2023/01/17 08:05:14;;;;;;;7.47;0.82;;;0.50;99.90;;;;;;5074678;28;20454;-70
2023/01/17 08:07:40;;;;;;;11.25;0.80;;;0.50;99.90;;;;;;5076081;28;20124;-70
2023/01/17 08:10:07;;;;;;;13.73;1.65;;;0.50;99.90;;;;;;5075536;28;20084;-71
2023/01/17 08:12:34;;;;;;;;;;;0.60;99.90;;;;;;5076153;28;20076;-70
2023/01/17 08:15:00;;;;;;;10.70;0.80;;;0.70;99.90;;;;;;5074219;28;19928;-71
2023/01/17 08:17:27;;;;;;;10.63;1.10;;;0.80;99.90;;;;;;5057384;28;20059;-71
2023/01/17 08:19:53;;;;;;;19.37;1.13;;;0.80;99.90;;;;;;5075194;28;20136;-71
2023/01/17 08:22:18;;;;;;;14.80;1.33;;;0.80;99.90;;;;;;5057567;28;20091;-71
2023/01/17 08:24:44;;;;;;;6.63;0.88;;;0.70;99.90;;;;;;5057526;28;20048;-71
2023/01/17 08:27:10;;;;;;;11.27;1.33;;;0.60;99.90;;;;;;5075607;28;20127;-70
2023/01/17 08:29:36;;;;;;;13.75;1.73;;;0.60;99.90;;;;;;5075099;28;20067;-71
2023/01/17 08:32:04;;;;;;;10.68;1.92;;;0.50;99.90;;;;;;5073858;28;20047;-72
2023/01/17 08:34:32;;;;;;;10.27;1.38;;;0.50;99.90;;;;;;5074990;28;20048;-71
2023/01/17 08:36:58;;;;;;;12.88;2.15;;;0.50;99.90;;;;;;5074341;28;20133;-71
2023/01/17 08:39:26;;;;;;;14.15;2.30;;;0.50;99.90;;;;;;5074120;28;20098;-71
2023/01/17 08:41:52;;;;;;;21.92;2.28;;;0.50;99.90;;;;;;5041049;28;20067;-71
2023/01/17 08:44:18;;;;;;;14.20;2.00;;;0.50;99.90;;;;;;5074815;28;20052;-72
2023/01/17 08:46:44;;;;;;;16.13;2.92;;;0.50;99.90;;;;;;5073601;28;20037;-70
2023/01/17 08:49:11;;;;;;;15.90;2.58;;;0.60;99.90;;;;;;5074692;28;20052;-70
2023/01/17 08:51:37;;;;;;;12.30;2.23;;;0.50;99.90;;;;;;5075513;28;20463;-70
2023/01/17 08:54:04;;;;;;;22.48;2.45;;;0.60;99.90;;;;;;5074717;28;20067;-69
2023/01/17 08:56:30;;;;;;;;;;;0.50;99.90;;;;;;5075011;28;20048;-71
2023/01/17 08:58:56;;;;;;;12.48;3.25;;;0.50;99.90;;;;;;5073295;28;19926;-71
2023/01/17 09:01:21;;;;;;;15.35;2.67;;;0.50;99.90;;;;;;5040200;28;20094;-71
2023/01/17 09:03:48;;;;;;;23.98;4.28;;;0.60;99.90;;;;;;5072719;28;20052;-72
2023/01/17 09:06:15;;;;;;;20.08;3.58;;;0.60;99.90;;;;;;5072963;28;20044;-71
2023/01/17 09:08:45;;;;;;;15.35;2.88;;;0.60;99.90;;;;;;5073220;28;20455;-71
2023/01/17 09:11:13;;;;;;;15.50;2.95;;;0.60;99.90;;;;;;5074245;28;20051;-72
2023/01/17 09:13:40;;;;;;;15.18;3.78;;;0.60;99.90;;;;;;5073009;28;20532;-71
2023/01/17 09:16:06;;;;;;;21.17;3.27;;;0.70;99.90;;;;;;5073544;28;20051;-71
2023/01/17 09:18:33;;;;;;;15.80;4.07;;;0.70;99.90;;;;;;5074377;28;20063;-70
2023/01/17 09:21:10;;;;;;;21.10;3.60;;;0.70;99.90;;;;;;5073347;28;20130;-70
2023/01/17 09:23:36;;;;;;;17.20;3.95;;;0.70;99.90;;;;;;5072357;28;20052;-70
2023/01/17 09:26:02;;;;;;;16.73;3.35;;;0.80;99.90;;;;;;5072017;28;20043;-71
2023/01/17 09:28:27;;;;;;;14.52;3.53;;;0.80;99.90;;;;;;5072441;28;20044;-70
2023/01/17 09:30:53;;;;;;;11.52;3.72;;;0.80;99.90;;;;;;5055340;28;20064;-71
2023/01/17 09:33:20;;;;;;;15.65;4.10;;;0.80;99.90;;;;;;5072871;28;20044;-71
2023/01/17 09:35:46;;;;;;;24.00;4.30;;;0.80;99.90;;;;;;5071857;28;20048;-70
2023/01/17 09:38:12;;;;;;;13.63;3.80;;;0.80;99.90;;;;;;5055462;28;20385;-71
2023/01/17 09:40:44;;;;;;;13.48;3.63;;;0.90;99.90;;;;;;5072931;28;20048;-70
2023/01/17 09:43:37;;;;;;;22.83;3.97;;;0.90;99.90;;;;;;5072421;28;20139;-70
2023/01/17 09:46:05;;;;;;;15.57;3.67;;;0.90;99.90;;;;;;5070070;28;20064;-70
2023/01/17 09:48:36;;;;;;;18.75;4.63;;;1.00;99.90;;;;;;5072811;28;20083;-70
2023/01/17 09:51:14;;;;;;;19.35;4.13;;;1.10;99.90;;;;;;5071343;28;20508;-72
2023/01/17 09:53:42;;;;;;;21.23;4.50;;;1.20;99.90;;;;;;5071629;28;20048;-71
2023/01/17 09:56:13;;;;;;;15.95;3.55;;;1.30;99.90;;;;;;5055099;28;20136;-71
2023/01/17 09:58:48;;;;;;;19.38;3.97;;;1.40;99.90;;;;;;5071975;28;20044;-71
2023/01/17 10:01:39;;;;;;;12.27;3.10;;;1.60;99.90;;;;;;5072680;28;20052;-72
2023/01/17 10:04:37;;;;;;;20.15;5.10;;;1.70;99.90;;;;;;5055049;28;20044;-70
2023/01/17 10:07:34;;;;;;;17.42;4.68;;;1.80;99.90;;;;;;5072608;28;20043;-70
2023/01/17 10:10:17;;;;;;;14.98;3.72;;;1.80;99.90;;;;;;5073332;28;20070;-70
2023/01/17 10:12:59;;;;;;;17.92;3.85;;;1.80;99.90;;;;;;5054880;28;20055;-70
2023/01/17 10:15:37;;;;;;;18.70;3.95;;;1.80;99.90;;;;;;5071285;28;20548;-70
2023/01/17 10:21:39;;;;;;;13.18;3.45;;;1.80;99.90;;;;;;5106559;27;20512;-70
2023/01/17 10:24:23;;;;;;;17.90;3.70;;;1.80;99.90;;;;;;5086995;28;20091;-71
2023/01/17 10:26:52;;;;;;;16.83;3.80;;;1.80;99.90;;;;;;5105397;28;20052;-71
2023/01/17 10:29:19;;;;;;;19.20;4.35;;;1.80;99.90;;;;;;5089896;28;20076;-70
2023/01/17 10:31:54;;;;;;;18.48;4.57;;;1.90;99.90;;;;;;5088036;28;20135;-70
2023/01/17 10:34:39;;;;;;;14.10;3.47;;;1.90;99.90;;;;;;5074203;28;20048;-71
2023/01/17 10:37:13;;;;;;;14.27;3.50;;;1.90;99.90;;;;;;5068315;28;20063;-71
2023/01/17 10:39:46;;;;;;;15.75;3.55;;;1.90;99.90;;;;;;5068531;28;20052;-71
2023/01/17 10:42:25;;;;;;;13.75;3.53;;;2.00;99.90;;;;;;5069546;28;20049;-72
2023/01/17 10:44:57;;;;;;;20.65;4.15;;;2.00;99.90;;;;;;5068675;28;20044;-71
2023/01/17 10:47:23;;;;;;;24.17;4.03;;;2.00;99.90;;;;;;5051309;28;20053;-72
2023/01/17 10:49:56;;;;;;;17.00;3.23;;;2.00;99.90;;;;;;5077386;28;20415;-70
2023/01/17 10:52:46;;;;;;;27.20;3.35;;;2.10;99.90;;;;;;5089379;28;20131;-70
2023/01/17 10:55:17;;;;;;;15.00;3.65;;;2.20;99.90;;;;;;5088155;28;20512;-71
2023/01/17 10:57:46;;;;;;;16.30;3.17;;;2.20;99.90;;;;;;5087494;28;20059;-71
2023/01/17 11:00:24;;;;;;;11.60;2.70;;;2.20;99.90;;;;;;5087614;28;20045;-71
2023/01/17 11:02:51;;;;;;;19.10;3.28;;;2.30;99.90;;;;;;5088364;28;20091;-71
2023/01/17 11:05:34;;;;;;;17.75;4.03;;;2.30;99.90;;;;;;5104557;28;20127;-71
2023/01/17 11:08:09;;;;;;;14.95;2.90;;;2.40;99.90;;;;;;5071351;28;20055;-71
2023/01/17 11:10:48;;;;;;;11.52;3.67;;;2.40;99.90;;;;;;5087336;28;20048;-72
2023/01/17 11:13:33;;;;;;;15.05;3.13;;;2.50;99.90;;;;;;5088989;28;20048;-72
2023/01/17 11:16:06;;;;;;;23.08;2.92;;;2.60;99.90;;;;;;5089003;28;20049;-71
2023/01/17 11:18:35;;;;;;;18.80;3.38;;;2.60;99.90;;;;;;5087175;28;20052;-71
2023/01/17 11:21:22;;;;;;;18.00;3.22;;;2.80;99.90;;;;;;5088885;28;20059;-70
2023/01/17 11:23:55;;;;;;;12.40;2.70;;;2.80;99.90;;;;;;5088625;28;20387;-71
2023/01/17 11:26:33;;;;;;;9.70;2.78;;;2.90;99.90;;;;;;5088839;28;20048;-70
2023/01/17 11:29:29;;;;;;;18.35;3.08;;;2.80;99.90;;;;;;5088815;28;20108;-71
2023/01/17 11:31:55;;;;;;;18.73;2.97;;;2.90;99.90;;;;;;5077065;28;20045;-71
2023/01/17 11:34:30;;;;;;;20.10;4.32;;;2.90;99.90;;;;;;5073738;28;20052;-71
2023/01/17 11:37:08;;;;;;;22.65;3.20;;;3.00;99.90;;;;;;5075219;28;20090;-71
2023/01/17 11:39:34;;;;;;;12.65;3.38;;;3.00;99.90;;;;;;5074307;28;20045;-71
2023/01/17 11:42:04;;;;;;;15.95;3.08;;;3.00;99.90;;;;;;5074861;28;20045;-72
2023/01/17 11:44:34;;;;;;;11.75;2.90;;;3.00;99.90;;;;;;5107998;28;20044;-71
2023/01/17 11:47:12;;;;;;;13.93;3.10;;;3.00;99.90;;;;;;5057087;28;20067;-73
2023/01/17 11:49:43;;;;;;;10.60;2.92;;;3.00;99.90;;;;;;5074367;28;20044;-72
2023/01/17 11:52:30;;;;;;;13.82;3.10;;;3.10;99.90;;;;;;5107655;28;20101;-72
2023/01/17 11:54:57;;;;;;;9.73;2.83;;;3.10;99.90;;;;;;5073875;28;20059;-72
2023/01/17 11:57:29;;;;;;;13.88;3.10;;;3.00;99.90;;;;;;5073681;28;20084;-72
2023/01/17 12:00:20;;;;;;;14.35;2.97;;;3.00;99.90;;;;;;5090023;28;20040;-72
2023/01/17 12:03:09;;;;;;;14.95;2.78;;;3.10;99.90;;;;;;5106702;28;20048;-73
2023/01/17 12:06:08;;;;;;;16.88;2.95;;;3.10;99.90;;;;;;5093981;28;20103;-72
2023/01/17 12:08:50;;;;;;;24.98;3.90;;;3.00;99.90;;;;;;5036426;28;20049;-75
2023/01/17 12:11:27;;;;;;;18.38;3.25;;;3.10;99.90;;;;;;5054518;28;20049;-72
2023/01/17 12:14:15;;;;;;;17.92;3.10;;;3.10;99.90;;;;;;5053037;28;20049;-71
2023/01/17 12:16:59;;;;;;;18.13;4.28;;;3.20;99.90;;;;;;5052844;28;20052;-71
2023/01/17 12:20:04;;;;;;;10.18;2.90;;;3.20;99.90;;;;;;5053040;28;20083;-72
2023/01/17 12:22:53;;;;;;;14.27;3.38;;;3.20;99.90;;;;;;5063713;28;20063;-72
2023/01/17 12:25:45;;;;;;;11.48;2.83;;;3.20;99.90;;;;;;5074104;28;20044;-72
2023/01/17 12:28:32;;;;;;;19.38;3.28;;;3.20;99.90;;;;;;5074140;28;20067;-71
2023/01/17 12:31:14;;;;;;;8.90;2.17;;;3.20;99.90;;;;;;5073680;28;20052;-72
2023/01/17 12:33:49;;;;;;;12.13;3.05;;;3.30;99.90;;;;;;5072644;28;20041;-72
2023/01/17 12:36:42;;;;;;;15.85;2.50;;;3.30;99.90;;;;;;5072720;28;20055;-72
2023/01/17 12:39:12;;;;;;;15.13;2.55;;;3.30;99.90;;;;;;5072737;28;20409;-73
2023/01/17 12:41:47;;;;;;;11.93;2.38;;;3.40;99.90;;;;;;5073780;28;20102;-72
2023/01/17 12:44:17;;;;;;;13.27;2.47;;;3.30;99.90;;;;;;5071781;28;20048;-72
2023/01/17 12:46:48;;;;;;;7.78;1.80;;;3.30;99.90;;;;;;5071878;28;20048;-72
2023/01/17 12:49:23;;;;;;;12.60;2.30;;;3.40;99.90;;;;;;5072795;28;20044;-72
2023/01/17 12:51:59;;;;;;;12.98;2.13;;;3.40;99.90;;;;;;5071914;28;20051;-71
2023/01/17 12:54:35;;;;;;;17.95;2.47;;;3.40;99.90;;;;;;5073560;28;20497;-72
2023/01/17 12:57:12;;;;;;;11.45;1.77;;;3.50;99.90;;;;;;5073051;28;20348;-71
2023/01/17 13:00:06;;;;;;;19.40;2.25;;;3.50;99.90;;;;;;5073485;28;20040;-71
2023/01/17 13:02:51;;;;;;;11.40;1.90;;;3.50;99.90;;;;;;5058883;28;20053;-71
2023/01/17 13:05:17;;;;;;;13.57;2.17;;;3.60;99.90;;;;;;5072890;28;20052;-72
2023/01/17 13:08:04;;;;;;;12.07;2.72;;;3.50;99.90;;;;;;5050962;28;20051;-73
2023/01/17 13:10:37;;;;;;;13.57;2.53;;;3.60;99.90;;;;;;5085903;28;20044;-73
2023/01/17 13:13:22;;;;;;;11.00;2.90;;;3.50;99.90;;;;;;5052575;28;20707;-73
2023/01/17 13:16:01;;;;;;;11.73;2.00;;;3.50;99.90;;;;;;5068900;28;20045;-74
2023/01/17 13:18:28;;;;;;;8.52;2.70;;;3.50;99.90;;;;;;5060087;28;20076;-73
2023/01/17 13:21:12;;;;;;;;;;;3.50;99.90;;;;;;5073000;28;20420;-71
2023/01/17 13:23:57;;;;;;;14.07;2.30;;;3.50;99.90;;;;;;5071614;28;19920;-73
2023/01/17 13:26:55;;;;;;;12.70;1.80;;;3.60;99.90;;;;;;5071619;28;20399;-73
2023/01/17 13:29:40;;;;;;;19.08;2.10;;;3.60;99.90;;;;;;5072783;28;20087;-74
2023/01/17 13:32:27;;;;;;;9.43;1.90;;;3.60;99.90;;;;;;5071271;28;20253;-74
2023/01/17 13:35:38;;;;;;;10.48;2.58;;;3.50;99.90;;;;;;5054497;28;20052;-72
2023/01/17 13:38:33;;;;;;;6.68;1.88;;;3.60;99.90;;;;;;5071354;28;20056;-75
2023/01/17 13:41:14;;;;;;;15.57;2.42;;;3.50;99.90;;;;;;5070205;28;20080;-73
2023/01/17 13:44:20;;;;;;;13.80;2.50;;;3.40;99.90;;;;;;5047021;28;20045;-74
2023/01/17 13:46:51;;;;;;;9.27;2.20;;;3.40;99.90;;;;;;5057490;28;20106;-73
2023/01/17 13:49:33;;;;;;;7.97;1.50;;;3.40;99.90;;;;;;5071106;28;20041;-73
2023/01/17 13:52:25;;;;;;;13.43;2.00;;;3.40;99.90;;;;;;5071378;28;20457;-74
2023/01/17 13:55:00;;;;;;;13.90;2.50;;;3.40;99.90;;;;;;5084442;28;20131;-73
2023/01/17 13:57:28;;;;;;;12.25;2.00;;;3.40;99.90;;;;;;5052425;28;20136;-74
2023/01/17 14:00:20;;;;;;;14.23;2.20;;;3.30;99.90;;;;;;5051575;28;20497;-74
2023/01/17 14:02:50;;;;;;;10.90;1.80;;;3.40;99.90;;;;;;5052388;28;20219;-74
2023/01/17 14:05:23;;;;;;;15.23;2.13;;;3.30;99.90;;;;;;5071832;28;20404;-74
2023/01/17 14:08:02;;;;;;;9.38;1.58;;;3.30;99.90;;;;;;5054621;28;20140;-73
2023/01/17 14:10:39;;;;;;;11.80;1.23;;;3.30;99.90;;;;;;5052189;28;20036;-73
2023/01/17 14:13:29;;;;;;;12.35;1.65;;;3.30;99.90;;;;;;5060188;28;20052;-74
2023/01/17 14:15:55;;;;;;;9.73;1.13;;;3.30;99.90;;;;;;5071691;28;20507;-74
2023/01/17 14:18:36;;;;;;;9.70;1.52;;;3.20;99.90;;;;;;5071152;28;20511;-74
2023/01/17 14:21:10;;;;;;;12.50;1.80;;;3.20;99.90;;;;;;5086730;28;20063;-73
2023/01/17 14:24:02;;;;;;;14.40;1.63;;;3.20;99.90;;;;;;5072335;28;20048;-74
2023/01/17 14:26:56;;;;;;;17.15;1.60;;;3.20;99.90;;;;;;5071191;28;20068;-72
2023/01/17 14:29:44;;;;;;;16.17;1.70;;;3.20;99.90;;;;;;5104679;28;20037;-73
2023/01/17 14:32:16;;;;;;;14.82;1.85;;;3.30;99.90;;;;;;5070791;28;20067;-73
2023/01/17 14:34:44;;;;;;;6.88;1.70;;;3.30;99.90;;;;;;5072303;28;20409;-73
2023/01/17 14:37:35;;;;;;;7.40;1.55;;;3.40;99.90;;;;;;5071268;28;20079;-73
2023/01/17 14:40:12;;;;;;;14.50;1.70;;;3.40;99.90;;;;;;5070829;28;20123;-73
2023/01/17 14:42:38;;;;;;;12.40;2.10;;;3.40;99.90;;;;;;5071966;28;20500;-72